createdAt,value
2022-09-11T00:01:23.496Z,12.90
2022-09-11T00:03:50.546Z,13.00
2022-09-11T00:06:29.437Z,12.90
2022-09-11T00:09:02.950Z,12.90
2022-09-11T00:11:33.227Z,12.90
2022-09-11T00:14:01.012Z,12.90
2022-09-11T00:16:37.848Z,12.90
2022-09-11T00:19:11.847Z,12.90
2022-09-11T00:21:39.428Z,12.90
2022-09-11T00:24:08.961Z,12.80
2022-09-11T00:26:36.567Z,12.80
2022-09-11T00:29:04.208Z,12.70
2022-09-11T00:31:32.499Z,12.70
2022-09-11T00:33:59.880Z,12.70
2022-09-11T00:36:29.354Z,12.60
2022-09-11T00:38:56.563Z,12.50
2022-09-11T00:41:34.413Z,12.60
2022-09-11T00:44:28.664Z,12.60
2022-09-11T00:46:58.999Z,12.60
2022-09-11T00:49:44.507Z,12.50
2022-09-11T00:52:23.177Z,12.50
2022-09-11T00:54:56.609Z,12.40
2022-09-11T00:57:27.211Z,12.40
2022-09-11T00:59:58.796Z,12.30
2022-09-11T01:02:28.438Z,12.30
2022-09-11T01:04:57.935Z,12.30
2022-09-11T01:07:27.075Z,12.40
2022-09-11T01:09:55.945Z,12.40
2022-09-11T01:12:25.916Z,12.40
2022-09-11T01:15:09.265Z,12.40
2022-09-11T01:17:56.679Z,12.30
2022-09-11T01:20:36.628Z,12.20
2022-09-11T01:23:32.652Z,12.30
2022-09-11T01:26:13.504Z,12.30
2022-09-11T01:28:47.401Z,12.30
2022-09-11T01:31:20.411Z,12.30
2022-09-11T01:34:15.908Z,12.30
2022-09-11T01:36:53.796Z,12.20
2022-09-11T01:39:27.599Z,12.10
2022-09-11T01:42:10.226Z,12.10
2022-09-11T01:44:47.235Z,12.10
2022-09-11T01:47:18.109Z,12.00
2022-09-11T01:50:09.776Z,12.00
2022-09-11T01:53:05.181Z,12.00
2022-09-11T01:55:39.026Z,11.90
2022-09-11T01:58:13.204Z,11.90
2022-09-11T02:00:49.882Z,11.90
2022-09-11T02:03:35.708Z,11.80
2022-09-11T02:06:09.313Z,11.90
2022-09-11T02:08:51.467Z,11.80
2022-09-11T02:11:22.322Z,11.80
2022-09-11T02:13:49.239Z,11.80
2022-09-11T02:16:35.470Z,11.80
2022-09-11T02:19:06.129Z,11.80
2022-09-11T02:21:34.341Z,11.80
2022-09-11T02:24:02.212Z,11.80
2022-09-11T02:26:33.788Z,11.70
2022-09-11T02:29:01.756Z,11.70
2022-09-11T02:31:28.952Z,11.70
2022-09-11T02:33:57.948Z,11.60
2022-09-11T02:36:54.917Z,11.60
2022-09-11T02:39:56.352Z,11.70
2022-09-11T02:42:42.179Z,11.60
2022-09-11T02:45:41.373Z,11.60
2022-09-11T02:48:23.434Z,11.60
2022-09-11T02:51:23.022Z,11.60
2022-09-11T02:53:57.334Z,11.70
2022-09-11T02:56:50.785Z,11.70
2022-09-11T02:59:26.318Z,11.70
2022-09-11T03:01:55.385Z,11.70
2022-09-11T03:04:25.860Z,11.70
2022-09-11T03:06:55.270Z,11.70
2022-09-11T03:09:22.531Z,11.70
2022-09-11T03:11:55.082Z,11.70
2022-09-11T03:14:22.492Z,11.70
2022-09-11T03:16:50.107Z,11.70
2022-09-11T03:19:19.254Z,11.70
2022-09-11T03:21:46.254Z,11.60
2022-09-11T03:24:17.214Z,11.60
2022-09-11T03:26:45.544Z,11.70
2022-09-11T03:29:12.615Z,11.70
2022-09-11T03:31:41.534Z,11.70
2022-09-11T03:34:09.067Z,11.70
2022-09-11T03:36:36.714Z,11.70
2022-09-11T03:39:05.117Z,11.70
2022-09-11T03:41:32.720Z,11.70
2022-09-11T03:44:00.128Z,11.70
2022-09-11T03:46:27.977Z,11.60
2022-09-11T03:48:55.044Z,11.60
2022-09-11T03:51:22.158Z,11.60
2022-09-11T03:53:49.143Z,11.60
2022-09-11T03:56:16.151Z,11.60
2022-09-11T03:58:48.415Z,11.60
2022-09-11T04:01:19.047Z,11.60
2022-09-11T04:03:46.589Z,11.60
2022-09-11T04:06:23.627Z,11.60
2022-09-11T04:08:50.652Z,11.60
2022-09-11T04:11:19.219Z,11.60
2022-09-11T04:13:46.487Z,11.60
2022-09-11T04:16:18.639Z,11.60
2022-09-11T04:18:51.333Z,11.60
2022-09-11T04:21:19.182Z,11.60
2022-09-11T04:23:56.329Z,11.60
2022-09-11T04:26:25.777Z,11.60
2022-09-11T04:28:59.281Z,11.60
2022-09-11T04:31:27.724Z,11.70
2022-09-11T04:33:57.913Z,11.70
2022-09-11T04:36:27.337Z,11.70
2022-09-11T04:38:57.941Z,11.70
2022-09-11T04:41:26.290Z,11.70
2022-09-11T04:44:03.861Z,11.70
2022-09-11T04:46:33.437Z,11.70
2022-09-11T04:49:04.377Z,11.70
2022-09-11T04:51:34.904Z,11.70
2022-09-11T04:54:03.040Z,11.80
2022-09-11T04:56:39.795Z,11.80
2022-09-11T04:59:13.840Z,11.80
2022-09-11T05:01:44.268Z,11.80
2022-09-11T05:04:12.942Z,11.80
2022-09-11T05:06:42.617Z,11.80
2022-09-11T05:09:13.097Z,11.90
2022-09-11T05:11:40.259Z,11.90
2022-09-11T05:14:09.076Z,11.90
2022-09-11T05:16:37.988Z,11.90
2022-09-11T05:19:05.504Z,11.90
2022-09-11T05:21:34.776Z,11.90
2022-09-11T05:24:03.022Z,11.90
2022-09-11T05:26:34.369Z,11.90
2022-09-11T05:29:23.253Z,12.00
2022-09-11T05:31:58.952Z,12.00
2022-09-11T05:34:30.276Z,12.00
2022-09-11T05:36:58.640Z,11.90
2022-09-11T05:39:28.764Z,11.90
2022-09-11T05:41:56.594Z,11.90
2022-09-11T05:44:27.769Z,11.90
2022-09-11T05:46:55.782Z,11.90
2022-09-11T05:49:24.000Z,12.00
2022-09-11T05:51:51.599Z,12.00
2022-09-11T05:54:18.560Z,12.10
2022-09-11T05:56:46.070Z,12.20
2022-09-11T05:59:20.666Z,12.20
2022-09-11T06:01:50.368Z,12.20
2022-09-11T06:04:30.790Z,12.20
2022-09-11T06:06:59.145Z,12.20
2022-09-11T06:09:27.752Z,12.30
2022-09-11T06:11:54.849Z,12.40
2022-09-11T06:14:22.134Z,12.40
2022-09-11T06:16:50.796Z,12.50
2022-09-11T06:19:18.072Z,12.60
2022-09-11T06:21:46.174Z,12.60
2022-09-11T06:24:23.877Z,12.70
2022-09-11T06:26:51.087Z,12.70
2022-09-11T06:29:18.798Z,12.80
2022-09-11T06:31:51.394Z,12.80
2022-09-11T06:34:21.964Z,12.90
2022-09-11T06:36:52.093Z,12.90
2022-09-11T06:39:22.998Z,13.10
2022-09-11T06:41:51.343Z,13.10
2022-09-11T06:44:21.240Z,13.20
2022-09-11T06:46:48.429Z,13.30
2022-09-11T06:49:15.445Z,13.30
2022-09-11T06:52:14.877Z,13.40
2022-09-11T06:54:50.560Z,13.40
2022-09-11T06:57:19.783Z,13.50
2022-09-11T06:59:47.296Z,13.70
2022-09-11T07:02:15.944Z,13.80
2022-09-11T07:04:44.608Z,14.00
2022-09-11T07:07:11.619Z,14.10
2022-09-11T07:09:39.704Z,14.10
2022-09-11T07:12:06.815Z,14.20
2022-09-11T07:14:34.818Z,14.30
2022-09-11T07:17:14.162Z,14.40
2022-09-11T07:19:43.386Z,14.40
2022-09-11T07:22:10.980Z,14.50
2022-09-11T07:24:37.970Z,14.60
2022-09-11T07:27:05.423Z,14.70
2022-09-11T07:29:35.729Z,14.80
2022-09-11T07:32:02.834Z,14.80
2022-09-11T07:34:29.814Z,14.80
2022-09-11T07:37:00.078Z,14.80
2022-09-11T07:39:27.573Z,14.80
2022-09-11T07:42:04.608Z,14.80
2022-09-11T07:44:34.102Z,14.90
2022-09-11T07:47:02.229Z,15.00
2022-09-11T07:49:32.319Z,15.10
2022-09-11T07:51:59.454Z,15.10
2022-09-11T07:54:36.164Z,15.10
2022-09-11T07:57:03.862Z,15.10
2022-09-11T07:59:31.083Z,15.20
2022-09-11T08:01:59.784Z,15.20
2022-09-11T08:04:26.931Z,15.40
2022-09-11T08:06:54.397Z,15.60
2022-09-11T08:09:27.767Z,15.90
2022-09-11T08:11:58.709Z,16.00
2022-09-11T08:14:27.493Z,16.20
2022-09-11T08:16:59.129Z,16.60
2022-09-11T08:19:28.552Z,16.80
2022-09-11T08:21:59.178Z,16.90
2022-09-11T08:24:27.513Z,17.10
2022-09-11T08:26:59.747Z,17.20
2022-09-11T08:29:27.627Z,17.60
2022-09-11T08:31:58.072Z,17.80
2022-09-11T08:34:28.001Z,18.00
2022-09-11T08:36:55.293Z,18.20
2022-09-11T08:39:24.515Z,18.40
2022-09-11T08:42:12.670Z,18.70
2022-09-11T08:44:49.460Z,19.00
2022-09-11T08:47:31.780Z,18.90
2022-09-11T08:50:41.218Z,18.80
2022-09-11T08:53:15.773Z,18.60
2022-09-11T08:55:55.325Z,18.50
2022-09-11T08:58:38.885Z,18.40
2022-09-11T09:01:24.502Z,18.40
2022-09-11T09:03:57.927Z,18.50
2022-09-11T09:06:36.979Z,18.70
2022-09-11T09:09:07.351Z,18.60
2022-09-11T09:12:17.734Z,19.20
2022-09-11T09:15:29.572Z,19.50
2022-09-11T09:18:13.529Z,19.40
2022-09-11T09:20:45.344Z,19.70
2022-09-11T09:23:18.835Z,20.00
2022-09-11T09:25:48.222Z,20.10
2022-09-11T09:28:37.902Z,20.50
2022-09-11T09:31:10.023Z,20.50
2022-09-11T09:33:57.363Z,20.70
2022-09-11T09:36:33.051Z,21.10
2022-09-11T09:39:02.305Z,21.20
2022-09-11T09:41:54.193Z,21.20
2022-09-11T09:44:36.029Z,21.00
2022-09-11T09:47:03.127Z,20.80
2022-09-11T09:49:33.268Z,20.60
2022-09-11T09:52:10.216Z,20.40
2022-09-11T09:54:37.700Z,20.40
2022-09-11T09:57:11.572Z,20.30
2022-09-11T09:59:47.620Z,20.20
2022-09-11T10:02:40.932Z,20.30
2022-09-11T10:05:24.399Z,20.40
2022-09-11T10:07:53.728Z,20.50
2022-09-11T10:10:40.786Z,20.50
2022-09-11T10:13:25.495Z,20.50
2022-09-11T10:15:55.658Z,20.40
2022-09-11T10:18:22.635Z,20.40
2022-09-11T10:20:49.739Z,20.50
2022-09-11T10:23:47.090Z,20.60
2022-09-11T10:26:39.337Z,20.60
2022-09-11T10:29:16.349Z,20.50
2022-09-11T10:31:50.899Z,20.60
2022-09-11T10:34:20.255Z,20.70
2022-09-11T10:36:53.716Z,21.10
2022-09-11T10:39:22.429Z,21.30
2022-09-11T10:41:52.161Z,21.40
2022-09-11T10:44:20.566Z,21.40
2022-09-11T10:47:06.515Z,21.40
2022-09-11T10:49:34.421Z,21.20
2022-09-11T10:52:22.270Z,21.00
2022-09-11T10:55:07.530Z,21.10
2022-09-11T10:57:47.508Z,21.40
2022-09-11T11:00:29.062Z,21.80
2022-09-11T11:03:12.580Z,22.10
2022-09-11T11:05:57.987Z,22.30
2022-09-11T11:08:27.983Z,22.40
2022-09-11T11:11:14.822Z,22.50
2022-09-11T11:14:14.649Z,22.50
2022-09-11T11:16:50.543Z,22.50
2022-09-11T11:19:45.380Z,22.40
2022-09-11T11:22:59.715Z,22.20
2022-09-11T11:25:48.010Z,22.00
2022-09-11T11:28:29.572Z,21.80
2022-09-11T11:31:11.679Z,21.90
2022-09-11T11:34:02.966Z,22.00
2022-09-11T11:36:52.225Z,22.00
2022-09-11T11:39:52.365Z,22.10
2022-09-11T11:42:35.092Z,22.10
2022-09-11T11:45:49.128Z,22.20
2022-09-11T11:48:25.454Z,22.20
2022-09-11T11:50:59.472Z,22.10
2022-09-11T11:53:38.642Z,22.00
2022-09-11T11:56:43.755Z,22.00
2022-09-11T11:59:25.384Z,21.90
2022-09-11T12:02:12.472Z,22.10
2022-09-11T12:04:56.321Z,22.10
2022-09-11T12:07:32.785Z,22.10
2022-09-11T12:10:01.661Z,22.00
2022-09-11T12:12:57.030Z,21.90
2022-09-11T12:15:29.278Z,21.90
2022-09-11T12:18:19.790Z,21.90
2022-09-11T12:20:46.965Z,21.80
2022-09-11T12:23:49.357Z,21.50
2022-09-11T12:26:22.370Z,21.50
2022-09-11T12:29:13.256Z,21.50
2022-09-11T12:31:49.624Z,21.50
2022-09-11T12:34:25.078Z,21.40
2022-09-11T12:37:04.647Z,21.50
2022-09-11T12:39:37.153Z,21.60
2022-09-11T12:42:33.650Z,21.60
2022-09-11T12:45:00.685Z,21.70
2022-09-11T12:47:32.987Z,21.70
2022-09-11T12:50:17.736Z,21.70
2022-09-11T12:52:54.955Z,21.70
2022-09-11T12:55:39.701Z,21.70
2022-09-11T12:58:49.968Z,21.70
2022-09-11T13:01:27.289Z,21.70
2022-09-11T13:04:03.423Z,21.60
2022-09-11T13:07:00.453Z,21.60
2022-09-11T13:09:29.641Z,21.30
2022-09-11T13:12:26.060Z,21.30
2022-09-11T13:15:00.205Z,21.40
2022-09-11T13:17:33.181Z,21.30
2022-09-11T13:20:07.510Z,21.40
2022-09-11T13:22:35.382Z,21.40
2022-09-11T13:25:14.683Z,21.40
2022-09-11T13:27:49.944Z,21.40
2022-09-11T13:30:21.689Z,21.30
2022-09-11T13:32:53.655Z,21.30
2022-09-11T13:35:29.947Z,21.30
2022-09-11T13:38:05.185Z,21.30
2022-09-11T13:41:07.035Z,21.10
2022-09-11T13:43:44.478Z,21.00
2022-09-11T13:46:25.263Z,21.10
2022-09-11T13:48:57.924Z,20.90
2022-09-11T13:51:31.234Z,20.80
2022-09-11T13:54:07.683Z,20.80
2022-09-11T13:57:04.821Z,20.60
2022-09-11T13:59:49.491Z,20.60
2022-09-11T14:02:16.890Z,20.60
2022-09-11T14:04:45.442Z,20.70
2022-09-11T14:07:27.209Z,20.70
2022-09-11T14:10:07.722Z,20.90
2022-09-11T14:12:50.978Z,21.00
2022-09-11T14:15:45.178Z,21.00
2022-09-11T14:18:30.174Z,21.10
2022-09-11T14:21:00.535Z,21.10
2022-09-11T14:23:29.099Z,21.10
2022-09-11T14:26:25.758Z,21.10
2022-09-11T14:29:07.063Z,21.00
2022-09-11T14:31:37.052Z,21.00
2022-09-11T14:34:27.539Z,20.90
2022-09-11T14:36:57.357Z,20.90
2022-09-11T14:39:56.608Z,20.90
2022-09-11T14:42:28.960Z,20.90
2022-09-11T14:44:56.201Z,20.90
2022-09-11T14:47:25.430Z,20.90
2022-09-11T14:49:54.129Z,20.90
2022-09-11T14:52:27.411Z,21.00
2022-09-11T14:54:54.900Z,21.00
2022-09-11T14:57:25.341Z,21.00
2022-09-11T14:59:52.821Z,21.00
2022-09-11T15:02:23.461Z,21.00
2022-09-11T15:04:52.407Z,21.00
2022-09-11T15:07:20.306Z,20.90
2022-09-11T15:09:47.247Z,21.00
2022-09-11T15:12:14.975Z,21.00
2022-09-11T15:14:56.229Z,21.10
2022-09-11T15:17:25.430Z,21.10
2022-09-11T15:19:53.582Z,21.10
2022-09-11T15:22:20.936Z,21.00
2022-09-11T15:24:48.885Z,20.90
2022-09-11T15:27:16.071Z,20.90
2022-09-11T15:29:44.308Z,21.00
2022-09-11T15:32:11.541Z,21.00
2022-09-11T15:34:39.822Z,21.00
2022-09-11T15:37:06.823Z,21.00
2022-09-11T15:39:34.145Z,21.00
2022-09-11T15:42:04.401Z,21.00
2022-09-11T15:44:31.526Z,21.00
2022-09-11T15:46:59.206Z,20.90
2022-09-11T15:49:28.537Z,20.90
2022-09-11T15:51:56.504Z,20.70
2022-09-11T15:54:23.876Z,20.80
2022-09-11T15:56:52.199Z,20.80
2022-09-11T15:59:19.520Z,20.80
2022-09-11T16:01:46.530Z,20.80
2022-09-11T16:04:16.591Z,20.70
2022-09-11T16:06:45.944Z,20.70
2022-09-11T16:09:22.723Z,20.70
2022-09-11T16:11:50.603Z,20.70
2022-09-11T16:14:21.739Z,20.60
2022-09-11T16:16:48.723Z,20.50
2022-09-11T16:19:20.556Z,20.50
2022-09-11T16:21:48.020Z,20.50
2022-09-11T16:24:15.877Z,20.40
2022-09-11T16:26:44.526Z,20.30
2022-09-11T16:29:14.840Z,20.30
2022-09-11T16:31:42.797Z,20.20
2022-09-11T16:34:10.657Z,20.10
2022-09-11T16:36:42.395Z,20.10
2022-09-11T16:39:12.207Z,20.10
2022-09-11T16:41:40.343Z,20.10
2022-09-11T16:44:10.404Z,20.00
2022-09-11T16:46:38.096Z,19.90
2022-09-11T16:49:06.214Z,19.90
2022-09-11T16:51:34.307Z,19.80
2022-09-11T16:54:03.635Z,19.80
2022-09-11T16:56:31.023Z,19.70
2022-09-11T16:58:58.806Z,19.60
2022-09-11T17:01:27.637Z,19.60
2022-09-11T17:03:56.939Z,19.50
2022-09-11T17:06:30.069Z,19.40
2022-09-11T17:08:59.923Z,19.40
2022-09-11T17:11:29.256Z,19.40
2022-09-11T17:13:56.253Z,19.40
2022-09-11T17:16:26.510Z,19.30
2022-09-11T17:18:56.764Z,19.20
2022-09-11T17:21:25.343Z,19.10
2022-09-11T17:23:54.828Z,19.00
2022-09-11T17:26:23.588Z,19.00
2022-09-11T17:28:52.177Z,18.90
2022-09-11T17:31:19.990Z,18.80
2022-09-11T17:33:48.168Z,18.70
2022-09-11T17:36:18.165Z,18.60
2022-09-11T17:38:47.017Z,18.60
2022-09-11T17:41:15.375Z,18.40
2022-09-11T17:43:42.996Z,18.30
2022-09-11T17:46:13.010Z,18.10
2022-09-11T17:48:41.138Z,18.00
2022-09-11T17:51:24.820Z,18.00
2022-09-11T17:53:56.321Z,18.00
2022-09-11T17:56:30.895Z,17.80
2022-09-11T17:59:00.085Z,17.90
2022-09-11T18:01:28.976Z,17.80
2022-09-11T18:03:58.351Z,17.80
2022-09-11T18:06:28.641Z,17.70
2022-09-11T18:09:02.054Z,17.60
2022-09-11T18:11:30.940Z,17.60
2022-09-11T18:14:00.513Z,17.50
2022-09-11T18:16:27.898Z,17.50
2022-09-11T18:18:55.904Z,17.30
2022-09-11T18:21:23.485Z,17.00
2022-09-11T18:23:51.235Z,17.00
2022-09-11T18:26:33.065Z,17.10
2022-09-11T18:29:01.608Z,17.00
2022-09-11T18:31:31.668Z,16.90
2022-09-11T18:34:01.058Z,17.00
2022-09-11T18:36:30.019Z,16.80
2022-09-11T18:39:01.509Z,16.80
2022-09-11T18:41:30.994Z,16.80
2022-09-11T18:44:00.646Z,16.80
2022-09-11T18:46:28.328Z,16.90
2022-09-11T18:48:56.230Z,16.90
2022-09-11T18:51:23.582Z,16.80
2022-09-11T18:53:54.643Z,16.80
2022-09-11T18:56:23.910Z,16.80
2022-09-11T18:58:52.423Z,16.80
2022-09-11T19:01:23.454Z,16.80
2022-09-11T19:03:52.296Z,16.90
2022-09-11T19:06:25.304Z,16.80
2022-09-11T19:08:54.276Z,16.80
2022-09-11T19:11:23.981Z,16.70
2022-09-11T19:13:54.596Z,16.70
2022-09-11T19:16:22.629Z,16.60
2022-09-11T19:18:50.201Z,16.50
2022-09-11T19:21:23.020Z,16.50
2022-09-11T19:23:55.715Z,16.40
2022-09-11T19:26:28.997Z,16.40
2022-09-11T19:28:57.661Z,16.40
2022-09-11T19:31:30.287Z,16.40
2022-09-11T19:34:01.700Z,16.30
2022-09-11T19:36:31.798Z,16.30
2022-09-11T19:39:02.027Z,16.20
2022-09-11T19:41:37.512Z,16.20
2022-09-11T19:44:07.891Z,16.20
2022-09-11T19:46:36.194Z,16.20
2022-09-11T19:49:06.072Z,16.20
2022-09-11T19:51:41.672Z,16.20
2022-09-11T19:54:10.639Z,16.00
2022-09-11T19:56:38.627Z,16.00
2022-09-11T19:59:07.350Z,16.00
2022-09-11T20:01:35.076Z,16.00
2022-09-11T20:04:02.406Z,15.90
2022-09-11T20:06:31.837Z,15.90
2022-09-11T20:09:26.833Z,16.00
2022-09-11T20:11:47.012Z,16.00
2022-09-11T20:14:13.977Z,16.10
2022-09-11T20:16:41.076Z,16.10
2022-09-11T20:19:09.480Z,16.10
2022-09-11T20:21:36.486Z,16.10
2022-09-11T20:24:06.290Z,16.10
2022-09-11T20:26:33.721Z,16.10
2022-09-11T20:29:07.155Z,16.20
2022-09-11T20:31:47.494Z,16.20
2022-09-11T20:34:19.421Z,16.20
2022-09-11T20:36:47.030Z,16.20
2022-09-11T20:39:14.493Z,16.10
2022-09-11T20:41:41.886Z,16.10
2022-09-11T20:44:09.673Z,16.00
2022-09-11T20:46:36.760Z,16.10
2022-09-11T20:49:05.039Z,16.10
2022-09-11T20:51:33.187Z,16.00
2022-09-11T20:54:00.909Z,16.10
2022-09-11T20:56:28.500Z,16.10
2022-09-11T20:58:56.458Z,16.00
2022-09-11T21:01:25.893Z,16.00
2022-09-11T21:03:55.508Z,16.00
2022-09-11T21:06:26.068Z,16.00
2022-09-11T21:08:56.034Z,16.00
2022-09-11T21:11:24.520Z,16.00
2022-09-11T21:13:52.002Z,15.90
2022-09-11T21:16:22.286Z,15.90
2022-09-11T21:18:52.521Z,15.90
2022-09-11T21:21:21.054Z,15.90
2022-09-11T21:23:48.428Z,15.90
2022-09-11T21:26:17.973Z,15.90
2022-09-11T21:28:45.057Z,15.90
2022-09-11T21:31:12.637Z,15.90
2022-09-11T21:33:39.863Z,15.90
2022-09-11T21:36:07.215Z,15.80
2022-09-11T21:38:34.580Z,15.70
2022-09-11T21:41:03.942Z,15.50
2022-09-11T21:43:30.958Z,15.40
2022-09-11T21:45:57.926Z,15.40
2022-09-11T21:48:24.947Z,15.40
2022-09-11T21:50:52.452Z,15.30
2022-09-11T21:53:20.283Z,15.30
2022-09-11T21:55:48.723Z,15.20
2022-09-11T21:58:20.935Z,15.20
2022-09-11T22:00:48.999Z,15.20
2022-09-11T22:03:18.510Z,15.00
2022-09-11T22:05:48.800Z,15.00
2022-09-11T22:08:18.579Z,15.00
2022-09-11T22:10:50.923Z,15.10
2022-09-11T22:13:19.022Z,15.00
2022-09-11T22:15:50.395Z,15.00
2022-09-11T22:18:18.402Z,14.80
2022-09-11T22:20:45.678Z,14.70
2022-09-11T22:23:23.150Z,14.70
2022-09-11T22:26:01.617Z,14.70
2022-09-11T22:28:28.903Z,14.60
2022-09-11T22:30:55.896Z,14.50
2022-09-11T22:33:23.196Z,14.60
2022-09-11T22:35:50.710Z,14.50
2022-09-11T22:38:17.991Z,14.50
2022-09-11T22:40:44.962Z,14.50
2022-09-11T22:43:11.960Z,14.40
2022-09-11T22:45:38.924Z,14.40
2022-09-11T22:48:06.004Z,14.40
2022-09-11T22:50:33.625Z,14.30
2022-09-11T22:53:00.568Z,14.20
2022-09-11T22:55:27.584Z,14.20
2022-09-11T22:57:55.199Z,14.20
2022-09-11T23:00:22.257Z,14.00
2022-09-11T23:02:49.197Z,13.90
2022-09-11T23:05:34.641Z,13.90
2022-09-11T23:08:01.796Z,14.00
2022-09-11T23:10:28.804Z,14.00
2022-09-11T23:12:55.819Z,14.00
2022-09-11T23:15:22.826Z,14.00
2022-09-11T23:17:49.795Z,14.00
2022-09-11T23:20:18.406Z,14.00
2022-09-11T23:22:45.325Z,13.80
2022-09-11T23:25:12.461Z,13.90
2022-09-11T23:27:39.566Z,13.80
2022-09-11T23:30:06.863Z,13.80
2022-09-11T23:32:33.859Z,13.80
2022-09-11T23:35:01.066Z,13.70
2022-09-11T23:37:28.065Z,13.70
2022-09-11T23:39:55.074Z,13.70
2022-09-11T23:42:23.684Z,13.70
2022-09-11T23:44:50.602Z,13.50
2022-09-11T23:47:17.591Z,13.50
2022-09-11T23:49:44.490Z,13.50
2022-09-11T23:52:11.491Z,13.50
2022-09-11T23:54:38.502Z,13.50
2022-09-11T23:57:05.942Z,13.40
2022-09-11T23:59:36.167Z,13.40
